Time;durP1;ratioP1;P1;durP2;ratioP2;P2;SDS_P1;SDS_P2;PMS_P1;PMS_P2;Temp;Humidity;BMP_temperature;BMP_pressure;BME280_temperature;BME280_humidity;BME280_pressure;Samples;Min_cycle;Max_cycle;Signal;HPM_P1;HPM_P2
2023/06/10 00:00:05;;;;;;;5.82;3.70;;;;;;;19.73;54.08;101354.22;1032009;28;20042;-47
2023/06/10 00:00:43;;;;;;;4.65;3.55;;;;;;;19.72;54.27;101349.88;1031384;28;20057;-47
2023/06/10 00:01:15;;;;;;;8.15;4.95;;;;;;;19.72;54.16;101350.72;1031778;28;20050;-55
2023/06/10 00:01:49;;;;;;;6.03;4.68;;;;;;;19.71;54.54;101353.66;1027662;28;20485;-56
2023/06/10 00:02:21;;;;;;;5.18;3.83;;;;;;;19.66;54.83;101365.25;1030025;28;20035;-48
2023/06/10 00:02:52;;;;;;;5.43;4.35;;;;;;;19.70;53.80;101352.03;1031488;28;20043;-45
2023/06/10 00:03:25;;;;;;;7.40;3.88;;;;;;;19.76;53.53;101356.41;1031807;28;20109;-44
2023/06/10 00:03:57;;;;;;;6.43;4.72;;;;;;;19.78;53.29;101359.66;1036265;28;20053;-56
2023/06/10 00:04:29;;;;;;;8.02;4.03;;;;;;;19.76;53.62;101361.81;1035804;28;20053;-56
2023/06/10 00:05:00;;;;;;;5.75;3.90;;;;;;;19.78;53.73;101353.44;1035911;28;20042;-56
2023/06/10 00:05:34;;;;;;;7.00;3.65;;;;;;;19.74;53.64;101351.25;1036172;28;20042;-54
2023/06/10 00:06:06;;;;;;;4.40;3.97;;;;;;;19.72;54.05;101352.56;1035858;28;20042;-56
2023/06/10 00:06:39;;;;;;;4.85;4.35;;;;;;;19.73;54.09;101354.22;1035468;28;20409;-56
2023/06/10 00:07:11;;;;;;;6.10;3.63;;;;;;;19.75;54.06;101355.59;1035743;28;20108;-56
2023/06/10 00:07:42;;;;;;;5.70;3.83;;;;;;;19.74;54.12;101353.16;1035749;28;20512;-56
2023/06/10 00:08:15;;;;;;;13.10;3.55;;;;;;;19.65;54.47;101354.72;1035932;28;20042;-56
2023/06/10 00:08:47;;;;;;;6.50;3.60;;;;;;;19.70;53.83;101362.84;1035776;28;20042;-56
2023/06/10 00:09:21;;;;;;;5.45;4.47;;;;;;;19.61;54.52;101359.03;1035874;28;20077;-56
2023/06/10 00:09:52;;;;;;;5.22;3.90;;;;;;;19.65;54.46;101362.81;1035686;28;20042;-56
2023/06/10 00:10:24;;;;;;;7.90;4.63;;;;;;;19.56;54.85;101367.13;1036650;28;20041;-46
2023/06/10 00:10:56;;;;;;;10.70;4.32;;;;;;;19.56;55.06;101361.72;1035685;28;20508;-45
2023/06/10 00:11:33;;;;;;;26.25;4.55;;;;;;;19.61;54.59;101364.44;1035184;28;20053;-44
2023/06/10 00:12:07;;;;;;;4.88;4.20;;;;;;;19.58;54.83;101359.56;1035006;28;20045;-48
2023/06/10 00:12:38;;;;;;;9.02;4.40;;;;;;;19.54;54.98;101361.97;1035767;28;20049;-46
2023/06/10 00:13:11;;;;;;;6.45;4.07;;;;;;;19.57;54.30;101363.34;1035330;28;20050;-45
2023/06/10 00:13:42;;;;;;;6.30;4.32;;;;;;;19.57;54.65;101366.84;1035405;28;20077;-46
2023/06/10 00:14:14;;;;;;;7.90;3.75;;;;;;;19.55;54.66;101360.91;1035651;28;20042;-48
2023/06/10 00:14:46;;;;;;;7.97;4.28;;;;;;;19.51;54.60;101369.75;1035515;28;20148;-47
2023/06/10 00:15:17;;;;;;;5.07;4.00;;;;;;;19.49;55.56;101361.09;1035439;28;20042;-48
2023/06/10 00:15:49;;;;;;;6.90;3.85;;;;;;;19.50;54.92;101357.34;1035687;28;20049;-46
2023/06/10 00:16:21;;;;;;;6.35;3.65;;;;;;;19.50;55.27;101366.25;1035383;28;20041;-44
2023/06/10 00:16:52;;;;;;;6.45;3.95;;;;;;;19.47;55.15;101365.97;1039295;28;20527;-46
2023/06/10 00:17:24;;;;;;;7.90;4.60;;;;;;;19.41;54.98;101365.91;1039069;28;20128;-44
2023/06/10 00:17:56;;;;;;;5.07;3.97;;;;;;;19.41;55.09;101365.09;1039299;28;20388;-47
2023/06/10 00:18:31;;;;;;;6.38;4.72;;;;;;;19.44;55.14;101365.38;1038633;28;20464;-48
2023/06/10 00:19:03;;;;;;;6.03;4.55;;;;;;;19.50;54.80;101370.84;1035420;28;20046;-45
2023/06/10 00:19:36;;;;;;;5.72;4.22;;;;;;;19.55;54.81;101363.59;1035555;28;20056;-45
2023/06/10 00:20:11;;;;;;;5.88;4.07;;;;;;;19.57;54.61;101369.56;1035727;28;20060;-48
2023/06/10 00:20:43;;;;;;;7.50;4.28;;;;;;;19.50;54.85;101368.13;1035404;28;20405;-46
2023/06/10 00:21:15;;;;;;;5.50;3.53;;;;;;;19.51;54.99;101361.66;1035229;28;20439;-46
2023/06/10 00:21:47;;;;;;;8.13;4.00;;;;;;;19.49;55.25;101366.50;1036358;28;20077;-55
2023/06/10 00:22:18;;;;;;;5.65;3.97;;;;;;;19.44;55.23;101365.38;1035501;28;20042;-44
2023/06/10 00:22:50;;;;;;;6.07;4.28;;;;;;;19.41;55.37;101368.63;1035385;28;20443;-48
2023/06/10 00:23:24;;;;;;;8.27;4.20;;;;;;;19.42;55.31;101369.44;1034454;28;20049;-48
2023/06/10 00:23:56;;;;;;;11.23;4.10;;;;;;;19.41;55.03;101355.09;1036309;28;20049;-48
2023/06/10 00:24:28;;;;;;;4.43;3.92;;;;;;;19.42;55.38;101364.84;1039156;28;20099;-45
2023/06/10 00:25:00;;;;;;;7.53;3.90;;;;;;;19.32;55.39;101366.69;1033649;28;20408;-47
2023/06/10 00:25:32;;;;;;;4.90;4.03;;;;;;;19.34;55.88;101368.03;1035268;28;20112;-55
2023/06/10 00:26:04;;;;;;;5.43;4.13;;;;;;;19.34;55.93;101368.03;1032447;28;20106;-45
2023/06/10 00:26:36;;;;;;;7.03;3.97;;;;;;;19.31;55.82;101368.56;1031739;28;20076;-45
2023/06/10 00:27:07;;;;;;;17.85;3.65;;;;;;;19.30;55.87;101358.84;1031759;28;20097;-47
2023/06/10 00:27:39;;;;;;;7.95;4.60;;;;;;;19.34;55.53;101370.75;1031460;28;20051;-47
2023/06/10 00:28:11;;;;;;;10.02;4.07;;;;;;;19.37;55.35;101364.81;1030887;28;20054;-45
2023/06/10 00:28:44;;;;;;;8.63;4.22;;;;;;;19.34;55.54;101362.63;1027158;28;20046;-45
2023/06/10 00:29:16;;;;;;;5.75;4.35;;;;;;;19.34;55.96;101364.53;1028371;28;20039;-56
2023/06/10 00:29:47;;;;;;;8.07;3.80;;;;;;;19.34;56.33;101368.03;1028368;28;20133;-46
2023/06/10 00:30:20;;;;;;;5.57;4.40;;;;;;;19.36;55.71;101363.19;1027731;28;20432;-45
2023/06/10 00:30:51;;;;;;;5.07;4.32;;;;;;;19.34;56.04;101365.34;1027196;28;20063;-46
2023/06/10 00:31:23;;;;;;;6.35;4.38;;;;;;;19.33;56.47;101369.13;1026306;28;20046;-49
2023/06/10 00:31:57;;;;;;;4.43;4.03;;;;;;;19.32;56.58;101367.50;1027185;28;20065;-45
2023/06/10 00:32:29;;;;;;;8.07;3.78;;;;;;;19.30;56.83;101366.94;1031142;28;20096;-46
2023/06/10 00:33:01;;;;;;;6.95;3.95;;;;;;;19.30;56.07;101369.66;1030969;28;20115;-46
2023/06/10 00:33:32;;;;;;;11.07;4.97;;;;;;;19.29;56.32;101365.31;1032604;28;20038;-56
2023/06/10 00:34:04;;;;;;;5.40;4.45;;;;;;;19.25;56.70;101366.09;1032584;28;20124;-56
2023/06/10 00:34:38;;;;;;;6.75;3.88;;;;;;;19.14;57.02;101365.22;1032439;28;20045;-56
2023/06/10 00:35:11;;;;;;;6.65;4.55;;;;;;;19.15;57.60;101372.22;1031452;28;20043;-56
2023/06/10 00:35:43;;;;;;;5.72;4.43;;;;;;;19.26;56.69;101373.13;1031231;28;20502;-56
2023/06/10 00:36:15;;;;;;;4.28;3.88;;;;;;;19.32;56.13;101370.19;1031455;28;20042;-56
2023/06/10 00:36:46;;;;;;;7.03;4.57;;;;;;;19.25;56.84;101366.91;1031548;28;20049;-56
2023/06/10 00:37:18;;;;;;;9.05;4.00;;;;;;;19.24;56.89;101369.88;1030995;28;20046;-56
2023/06/10 00:37:50;;;;;;;5.63;3.95;;;;;;;19.21;57.24;101371.22;1031147;28;20074;-56
2023/06/10 00:38:21;;;;;;;6.65;4.78;;;;;;;19.20;57.62;101372.28;1028913;28;20053;-56
2023/06/10 00:38:53;;;;;;;5.70;4.13;;;;;;;19.19;57.42;101372.56;1031319;28;20050;-56
2023/06/10 00:39:24;;;;;;;5.68;4.22;;;;;;;19.14;57.56;101373.31;1031578;28;20043;-56
2023/06/10 00:39:56;;;;;;;6.43;3.97;;;;;;;19.21;57.68;101371.22;1027021;28;20043;-56
2023/06/10 00:40:29;;;;;;;10.10;5.65;;;;;;;19.21;57.28;101375.81;1027192;28;20523;-56
2023/06/10 00:41:02;;;;;;;8.43;4.43;;;;;;;19.23;56.97;101371.78;1028103;28;20413;-56
2023/06/10 00:41:34;;;;;;;5.97;3.65;;;;;;;19.25;57.03;101368.81;1032067;28;20050;-50
2023/06/10 00:42:06;;;;;;;5.43;4.40;;;;;;;19.32;56.75;101367.50;1028206;28;20050;-44
2023/06/10 00:42:38;;;;;;;7.80;4.47;;;;;;;19.25;57.20;101376.91;1028082;28;20047;-44
2023/06/10 00:43:10;;;;;;;6.32;4.13;;;;;;;19.24;57.45;101373.41;1027359;28;20477;-47
2023/06/10 00:43:42;;;;;;;7.93;4.78;;;;;;;19.25;57.39;101372.31;1028004;28;20070;-48
2023/06/10 00:44:13;;;;;;;8.25;4.40;;;;;;;19.28;57.48;101374.50;1031801;28;20049;-46
2023/06/10 00:44:47;;;;;;;4.63;3.63;;;;;;;19.31;57.31;101376.69;1031145;28;20049;-46
2023/06/10 00:45:20;;;;;;;7.70;4.30;;;;;;;19.23;57.52;101371.78;1027034;28;20043;-47
2023/06/10 00:45:52;;;;;;;5.13;4.38;;;;;;;19.24;57.71;101376.09;1023851;28;20047;-48
2023/06/10 00:46:25;;;;;;;6.10;4.00;;;;;;;19.26;57.64;101384.75;1024215;28;20062;-45
2023/06/10 00:47:00;;;;;;;5.70;4.38;;;;;;;19.20;58.93;101383.09;1024208;28;20043;-47
2023/06/10 00:47:32;;;;;;;7.40;3.63;;;;;;;19.17;58.85;101385.47;1027846;28;20065;-48
2023/06/10 00:48:04;;;;;;;7.20;4.13;;;;;;;19.16;58.18;101373.88;1034183;28;20184;-49
2023/06/10 00:48:36;;;;;;;6.72;4.50;;;;;;;19.15;58.35;101374.94;1035654;28;20046;-49
2023/06/10 00:49:08;;;;;;;14.90;5.10;;;;;;;19.11;58.39;101382.75;1039284;28;20168;-45
2023/06/10 00:49:41;;;;;;;5.68;4.45;;;;;;;19.16;58.73;101384.66;1038785;28;20045;-45
2023/06/10 00:50:13;;;;;;;6.80;4.70;;;;;;;19.16;58.98;101379.25;1036175;28;20045;-45
2023/06/10 00:50:46;;;;;;;6.25;4.22;;;;;;;19.19;58.66;101378.78;1036356;28;20072;-45
2023/06/10 00:51:18;;;;;;;5.25;4.75;;;;;;;19.20;58.60;101379.59;1035955;28;20233;-48
2023/06/10 00:51:51;;;;;;;5.72;3.97;;;;;;;19.19;58.70;101381.47;1036095;28;20046;-47
2023/06/10 00:52:25;;;;;;;4.95;4.45;;;;;;;19.18;58.67;101381.72;1031905;28;20500;-46
2023/06/10 00:52:58;;;;;;;6.57;4.10;;;;;;;19.15;58.82;101374.94;1037074;28;20427;-45
2023/06/10 00:53:29;;;;;;;6.18;4.15;;;;;;;19.14;58.82;101381.41;1039167;28;20049;-45
2023/06/10 00:54:03;;;;;;;4.63;3.90;;;;;;;19.18;58.74;101379.03;1031072;28;20531;-46
2023/06/10 00:54:34;;;;;;;8.68;4.75;;;;;;;19.17;58.92;101378.19;1029553;28;20246;-47
2023/06/10 00:55:07;;;;;;;8.45;4.18;;;;;;;19.09;58.92;101375.97;1027515;28;20069;-45
2023/06/10 00:55:40;;;;;;;7.68;4.45;;;;;;;19.01;59.62;101381.88;1028230;28;20053;-45
2023/06/10 00:56:13;;;;;;;5.80;4.32;;;;;;;19.08;59.42;101377.06;1027414;28;20086;-45
2023/06/10 00:56:46;;;;;;;6.07;4.10;;;;;;;19.08;59.57;101377.06;1024231;28;20048;-56
2023/06/10 00:57:18;;;;;;;8.10;3.80;;;;;;;19.08;59.52;101379.75;1025616;28;20051;-56
2023/06/10 00:57:51;;;;;;;5.55;4.38;;;;;;;19.06;58.94;101379.22;1023945;28;20054;-56
2023/06/10 00:58:23;;;;;;;4.47;4.03;;;;;;;19.08;59.49;101387.84;1024153;28;20043;-56
2023/06/10 00:58:55;;;;;;;7.63;4.88;;;;;;;19.02;59.22;101383.50;1024044;29;20057;-56
2023/06/10 00:59:28;;;;;;;6.82;4.50;;;;;;;19.02;59.58;101381.63;1028552;28;20047;-56
2023/06/10 01:00:00;;;;;;;7.75;4.40;;;;;;;19.04;59.69;101384.06;1028913;28;20049;-56
2023/06/10 01:00:31;;;;;;;8.75;5.13;;;;;;;19.12;59.74;101380.88;1031963;28;20042;-55
2023/06/10 01:01:05;;;;;;;7.70;4.35;;;;;;;19.10;59.66;101386.53;1030978;28;20038;-55
2023/06/10 01:01:38;;;;;;;7.63;4.18;;;;;;;19.09;59.62;101386.78;1029549;28;20497;-45
2023/06/10 01:02:10;;;;;;;7.75;4.65;;;;;;;19.15;59.12;101388.44;1036961;28;20316;-46
2023/06/10 01:02:41;;;;;;;7.30;4.25;;;;;;;19.13;59.48;101390.59;1035056;28;20049;-46
2023/06/10 01:03:14;;;;;;;5.22;3.88;;;;;;;19.11;59.64;101381.94;1032147;28;20046;-49
2023/06/10 01:03:46;;;;;;;10.20;4.53;;;;;;;19.13;60.01;101385.19;1031979;28;20042;-49
2023/06/10 01:04:19;;;;;;;7.07;4.40;;;;;;;19.07;60.30;101383.53;1032315;28;20523;-47
2023/06/10 01:04:52;;;;;;;8.82;4.85;;;;;;;19.05;59.94;101378.38;1027810;28;20043;-44
2023/06/10 01:05:24;;;;;;;6.25;4.32;;;;;;;19.12;60.06;101383.56;1028512;28;20061;-46
2023/06/10 01:06:17;;;;;;;7.93;4.78;;;;;;;19.09;59.79;101378.69;1031954;28;20038;-48
2023/06/10 01:07:09;;;;;;;7.50;4.43;;;;;;;19.00;60.67;101385.66;1029876;28;20038;-48
2023/06/10 01:08:05;;;;;;;8.95;4.38;;;;;;;18.90;60.69;101388.25;1031800;28;20509;-48
2023/06/10 01:09:15;;;;;;;5.93;4.30;;;;;;;18.86;61.11;101389.84;1031840;28;20030;-45
2023/06/10 01:10:03;;;;;;;5.43;3.92;;;;;;;18.84;61.71;101392.81;1030550;28;20042;-49
2023/06/10 01:10:55;;;;;;;7.63;4.25;;;;;;;18.82;61.94;101393.06;1031692;28;20078;-46
2023/06/10 01:11:37;;;;;;;6.60;3.88;;;;;;;18.84;61.58;101388.22;1032028;28;20046;-51
2023/06/10 01:12:34;;;;;;;7.07;3.90;;;;;;;18.86;62.12;101392.53;1032037;28;20039;-49
2023/06/10 01:13:11;;;;;;;6.28;4.15;;;;;;;18.82;62.18;101390.38;1031763;28;20042;-46
2023/06/10 01:13:43;;;;;;;6.93;4.20;;;;;;;18.75;62.91;101395.16;1027925;28;20054;-46
2023/06/10 01:14:16;;;;;;;9.23;4.07;;;;;;;18.74;63.27;101398.94;1027121;28;20050;-46
2023/06/10 01:14:48;;;;;;;6.32;3.83;;;;;;;18.72;63.23;101398.38;1029401;28;20058;-49
2023/06/10 01:15:21;;;;;;;6.72;3.28;;;;;;;18.70;63.32;101388.91;1034326;28;20038;-56
2023/06/10 01:15:54;;;;;;;5.28;3.90;;;;;;;18.67;62.93;101397.53;1035973;28;20046;-55
2023/06/10 01:16:26;;;;;;;5.78;3.83;;;;;;;18.62;63.15;101390.19;1032653;28;20041;-56
2023/06/10 01:16:58;;;;;;;8.10;5.15;;;;;;;18.65;63.52;101394.28;1036017;28;20052;-56
2023/06/10 01:17:33;;;;;;;7.97;4.15;;;;;;;18.65;63.13;101388.88;1028393;28;20420;-56
2023/06/10 01:18:09;;;;;;;4.68;4.07;;;;;;;18.65;63.34;101388.88;1030158;28;20042;-53
2023/06/10 01:18:42;;;;;;;7.40;4.50;;;;;;;18.61;63.61;101388.53;1032038;28;20050;-56
2023/06/10 01:19:14;;;;;;;6.68;3.88;;;;;;;18.61;63.78;101410.09;1031832;28;20037;-56
2023/06/10 01:19:55;;;;;;;7.43;4.07;;;;;;;18.61;63.69;101393.91;1032487;28;20125;-56
2023/06/10 01:20:28;;;;;;;7.05;3.72;;;;;;;18.45;64.49;101401.06;1031728;28;20041;-56
2023/06/10 01:21:01;;;;;;;9.02;3.45;;;;;;;18.49;64.99;101395.97;1028036;28;20047;-56
2023/06/10 01:21:32;;;;;;;8.63;4.28;;;;;;;18.45;64.71;101400.25;1028253;28;20077;-56
2023/06/10 01:22:05;;;;;;;7.38;3.90;;;;;;;18.40;64.38;101392.13;1028903;28;20035;-56
2023/06/10 01:22:37;;;;;;;5.18;4.03;;;;;;;18.40;65.52;101403.72;1032124;28;20046;-56
2023/06/10 01:23:11;;;;;;;8.30;4.38;;;;;;;18.33;65.52;101407.66;1032098;28;20477;-56
2023/06/10 01:23:42;;;;;;;8.85;3.85;;;;;;;18.35;65.06;101400.13;1028626;28;20137;-56
2023/06/10 01:24:18;;;;;;;5.13;3.60;;;;;;;18.39;64.24;101403.97;1020040;29;20043;-56
2023/06/10 01:24:50;;;;;;;6.63;4.03;;;;;;;18.28;65.42;101404.91;1019826;29;20044;-56
2023/06/10 01:25:28;;;;;;;6.82;3.80;;;;;;;18.13;65.82;101401.00;1020389;29;20082;-57
2023/06/10 01:26:02;;;;;;;8.40;3.65;;;;;;;18.18;65.73;101403.75;1025449;28;20545;-56
2023/06/10 01:26:34;;;;;;;5.82;4.07;;;;;;;18.31;64.83;101409.81;1032014;28;20050;-56
2023/06/10 01:27:13;;;;;;;4.10;2.92;;;;;;;18.27;65.13;101403.28;1023786;28;20063;-56
2023/06/10 01:27:45;;;;;;;8.43;4.38;;;;;;;18.18;66.08;101405.63;1026748;28;20047;-56
2023/06/10 01:28:23;;;;;;;6.82;4.10;;;;;;;18.14;66.17;101409.91;1028007;28;20039;-56
2023/06/10 01:28:59;;;;;;;5.25;4.15;;;;;;;18.21;65.73;101405.13;1030671;28;20051;-56
2023/06/10 01:29:39;;;;;;;7.05;4.03;;;;;;;18.17;66.20;101410.22;1032055;28;20038;-56
2023/06/10 01:30:15;;;;;;;5.88;3.83;;;;;;;18.15;66.30;101406.97;1032816;28;20050;-56
2023/06/10 01:31:12;;;;;;;6.28;4.30;;;;;;;18.11;66.37;101410.41;1024091;28;20422;-44
2023/06/10 01:31:50;;;;;;;8.13;4.38;;;;;;;18.21;65.52;101414.03;1023641;28;20374;-46
2023/06/10 01:32:34;;;;;;;5.55;4.05;;;;;;;18.23;65.48;101414.59;1027594;28;20136;-45
2023/06/10 01:33:07;;;;;;;5.05;3.97;;;;;;;18.19;65.50;101407.25;1032740;28;20045;-44
2023/06/10 01:33:43;;;;;;;6.18;4.85;;;;;;;18.14;66.56;101416.13;1031863;28;20043;-45
2023/06/10 01:34:17;;;;;;;10.55;4.32;;;;;;;18.06;66.79;101408.44;1030883;28;20049;-45
2023/06/10 01:34:50;;;;;;;10.80;4.88;;;;;;;18.07;66.94;101415.47;1031994;28;20039;-45
2023/06/10 01:35:25;;;;;;;6.82;3.88;;;;;;;18.02;66.87;101410.03;1031758;28;20610;-45
2023/06/10 01:35:58;;;;;;;7.65;4.13;;;;;;;18.06;67.02;101411.16;1029143;28;20043;-49
2023/06/10 01:36:33;;;;;;;5.20;3.80;;;;;;;17.97;67.89;101412.66;1036253;28;20038;-56
2023/06/10 01:37:05;;;;;;;7.78;4.38;;;;;;;17.91;67.90;101421.75;1032376;28;20046;-56
2023/06/10 01:37:39;;;;;;;9.75;6.30;;;;;;;17.90;67.58;101414.75;1032835;28;20074;-56
2023/06/10 01:38:12;;;;;;;7.25;3.67;;;;;;;17.84;68.07;101423.84;1035796;28;20054;-56
2023/06/10 01:38:45;;;;;;;11.35;4.18;;;;;;;17.83;67.67;101416.81;1028660;28;20050;-56
2023/06/10 01:39:22;;;;;;;5.25;4.70;;;;;;;17.82;68.24;101412.50;1032406;28;20053;-46
2023/06/10 01:39:58;;;;;;;7.70;3.88;;;;;;;17.84;68.67;101415.75;1027398;28;20050;-49
2023/06/10 01:40:30;;;;;;;6.32;3.72;;;;;;;17.86;68.17;101419.00;1022802;28;20048;-47
2023/06/10 01:41:03;;;;;;;10.85;5.50;;;;;;;17.86;68.22;101424.41;1028911;28;20062;-48
2023/06/10 01:41:36;;;;;;;7.70;4.85;;;;;;;17.84;68.12;101413.06;1025164;28;20043;-56
2023/06/10 01:42:08;;;;;;;8.68;3.50;;;;;;;17.75;69.00;101411.84;1028637;28;20042;-56
2023/06/10 01:42:41;;;;;;;4.90;3.45;;;;;;;17.68;70.01;101422.00;1027591;28;20046;-56
2023/06/10 01:43:13;;;;;;;5.43;4.00;;;;;;;17.66;69.65;101424.09;1028396;28;20540;-56
2023/06/10 01:43:45;;;;;;;11.45;3.95;;;;;;;17.65;69.98;101433.25;1031738;28;20038;-56
2023/06/10 01:44:24;;;;;;;7.88;4.22;;;;;;;17.61;70.26;101422.97;1029039;28;20043;-56
2023/06/10 01:44:56;;;;;;;9.27;5.03;;;;;;;17.71;69.68;101416.09;1027813;28;20043;-48
2023/06/10 01:45:29;;;;;;;9.77;4.30;;;;;;;17.64;69.58;101421.66;1024762;28;20059;-56
2023/06/10 01:46:01;;;;;;;5.95;3.78;;;;;;;17.56;70.21;101425.59;1025664;28;20050;-56
2023/06/10 01:46:34;;;;;;;5.18;3.42;;;;;;;17.61;69.80;101416.75;1028623;28;20104;-56
2023/06/10 01:47:06;;;;;;;6.93;5.05;;;;;;;17.56;69.77;101420.19;1032299;28;20408;-56
2023/06/10 01:47:38;;;;;;;9.20;4.38;;;;;;;17.50;69.50;101415.78;1032610;28;20501;-56
2023/06/10 01:48:10;;;;;;;8.02;4.40;;;;;;;17.49;70.24;101419.53;1031966;28;20051;-56
2023/06/10 01:48:42;;;;;;;8.00;4.43;;;;;;;17.30;70.61;101426.28;1031668;28;20041;-56
2023/06/10 01:49:14;;;;;;;6.18;3.70;;;;;;;17.35;71.09;101420.16;1031005;28;20345;-56
2023/06/10 01:49:47;;;;;;;7.20;6.43;;;;;;;17.29;70.90;101419.25;1027741;28;20036;-56
2023/06/10 01:50:19;;;;;;;9.07;4.20;;;;;;;17.39;71.11;101424.78;1027951;28;20409;-56
2023/06/10 01:50:51;;;;;;;6.47;4.10;;;;;;;17.42;70.81;101423.47;1028205;28;20306;-56
2023/06/10 01:51:22;;;;;;;8.43;4.43;;;;;;;17.38;70.55;101420.47;1027958;28;20051;-56
2023/06/10 01:51:54;;;;;;;6.75;4.80;;;;;;;17.35;70.88;101418.28;1031631;28;20115;-56
2023/06/10 01:52:26;;;;;;;5.15;3.88;;;;;;;17.41;70.82;101419.97;1027686;28;20042;-56
2023/06/10 01:52:59;;;;;;;9.05;4.82;;;;;;;17.51;70.05;101414.72;1028113;28;20038;-56
2023/06/10 01:53:31;;;;;;;6.53;4.43;;;;;;;17.50;70.07;101413.09;1031624;28;20038;-56
2023/06/10 01:54:03;;;;;;;6.65;4.60;;;;;;;17.36;70.57;101413.69;1031488;28;20042;-56
2023/06/10 01:54:35;;;;;;;6.85;4.20;;;;;;;17.41;71.11;101414.59;1024327;28;20043;-56
2023/06/10 01:55:06;;;;;;;7.10;5.28;;;;;;;17.56;69.99;101417.50;1023403;28;20501;-56
2023/06/10 01:55:39;;;;;;;5.93;4.03;;;;;;;17.40;70.55;101414.84;1024769;28;20054;-56
2023/06/10 01:56:16;;;;;;;6.53;4.20;;;;;;;17.47;70.52;101415.47;1029985;28;20053;-56
2023/06/10 01:56:51;;;;;;;8.75;4.90;;;;;;;17.43;70.59;101425.94;1033431;28;20070;-46
2023/06/10 01:57:23;;;;;;;10.90;4.50;;;;;;;17.47;70.59;101420.84;1036688;28;20088;-56
2023/06/10 01:57:54;;;;;;;7.35;4.32;;;;;;;17.54;70.22;101416.94;1031456;28;20058;-56
2023/06/10 01:58:26;;;;;;;6.15;4.18;;;;;;;17.58;70.18;101418.06;1028784;28;20051;-56
2023/06/10 01:58:59;;;;;;;8.93;4.88;;;;;;;17.67;69.84;101420.34;1028955;28;20551;-46
2023/06/10 01:59:33;;;;;;;5.82;4.68;;;;;;;17.53;70.09;101418.00;1024892;28;20043;-52
2023/06/10 02:00:06;;;;;;;8.02;4.95;;;;;;;17.61;69.88;101422.16;1029361;28;20141;-56
2023/06/10 02:00:45;;;;;;;11.23;5.47;;;;;;;17.63;69.80;101424.59;1031070;28;20058;-56
2023/06/10 02:01:17;;;;;;;7.50;5.20;;;;;;;17.59;69.89;101414.31;1031610;28;20050;-56
2023/06/10 02:01:48;;;;;;;6.82;4.55;;;;;;;17.48;70.18;101422.47;1027529;28;20129;-53
2023/06/10 02:02:21;;;;;;;7.72;4.10;;;;;;;17.52;70.41;101421.75;1028994;28;20121;-56
2023/06/10 02:02:53;;;;;;;6.30;4.55;;;;;;;17.54;70.40;101421.50;1023735;28;20064;-56
2023/06/10 02:03:28;;;;;;;10.43;5.15;;;;;;;17.47;70.88;101427.06;1024198;28;20055;-54
2023/06/10 02:04:00;;;;;;;6.95;4.63;;;;;;;17.41;70.98;101425.34;1028903;28;20057;-45
2023/06/10 02:04:32;;;;;;;7.35;5.07;;;;;;;17.36;71.56;101425.28;1028448;28;20042;-45
2023/06/10 02:05:06;;;;;;;6.38;5.10;;;;;;;17.35;71.78;101429.03;1028466;28;20044;-47
2023/06/10 02:05:39;;;;;;;7.95;4.97;;;;;;;17.38;71.32;101422.34;1031690;28;20112;-48
2023/06/10 02:06:11;;;;;;;10.75;4.78;;;;;;;17.41;71.29;101428.06;1031527;28;20034;-45
2023/06/10 02:06:42;;;;;;;6.93;4.95;;;;;;;17.54;70.76;101433.09;1031703;28;20508;-45
2023/06/10 02:07:14;;;;;;;8.90;4.95;;;;;;;17.54;70.45;101433.09;1032194;28;20137;-45
2023/06/10 02:07:46;;;;;;;12.10;5.55;;;;;;;17.45;70.87;101429.19;1032272;28;20073;-49
2023/06/10 02:08:18;;;;;;;8.20;5.45;;;;;;;17.47;70.99;101427.06;1031355;28;20112;-47
2023/06/10 02:08:49;;;;;;;7.82;5.03;;;;;;;17.45;71.28;101429.19;1031770;28;20054;-48
2023/06/10 02:09:22;;;;;;;10.40;5.35;;;;;;;17.25;71.73;101434.25;1031542;28;20049;-43
2023/06/10 02:09:54;;;;;;;5.65;4.65;;;;;;;17.17;72.25;101434.69;1031634;28;20050;-46
2023/06/10 02:10:26;;;;;;;7.57;4.90;;;;;;;17.32;72.04;101429.53;1031793;28;20054;-46
2023/06/10 02:10:57;;;;;;;9.80;4.53;;;;;;;17.38;71.36;101428.56;1032697;28;20048;-56
2023/06/10 02:11:29;;;;;;;7.15;4.60;;;;;;;17.40;71.40;101426.41;1031775;28;20042;-48
2023/06/10 02:12:03;;;;;;;5.55;3.53;;;;;;;17.49;71.04;101430.31;1027474;28;20619;-46
2023/06/10 02:12:34;;;;;;;15.02;5.88;;;;;;;17.49;70.93;101424.94;1029390;28;20168;-49
2023/06/10 02:13:09;;;;;;;6.57;4.75;;;;;;;17.53;70.80;101431.47;1029083;28;20141;-45
2023/06/10 02:13:41;;;;;;;5.10;4.57;;;;;;;17.45;70.87;101423.81;1033615;28;20128;-54
2023/06/10 02:14:12;;;;;;;9.70;5.05;;;;;;;17.54;70.69;101425.03;1035274;28;20045;-56
2023/06/10 02:14:44;;;;;;;6.97;4.68;;;;;;;17.53;70.67;101426.09;1031975;28;20552;-56
2023/06/10 02:15:16;;;;;;;10.35;5.75;;;;;;;17.55;70.58;101423.97;1032460;28;20391;-56
2023/06/10 02:15:49;;;;;;;6.45;4.80;;;;;;;17.51;70.78;101427.38;1031710;28;20040;-56
2023/06/10 02:16:21;;;;;;;7.22;4.82;;;;;;;17.52;70.70;101424.44;1031708;28;20043;-56
2023/06/10 02:16:56;;;;;;;7.45;4.70;;;;;;;17.53;70.57;101422.56;1031363;28;20038;-56
2023/06/10 02:17:29;;;;;;;10.88;4.35;;;;;;;17.55;70.61;101434.75;1031077;28;20050;-56
2023/06/10 02:18:02;;;;;;;9.23;4.55;;;;;;;17.59;70.59;101427.78;1028403;28;20055;-55
2023/06/10 02:18:34;;;;;;;10.35;5.13;;;;;;;17.62;70.30;101423.78;1031735;28;20039;-56
2023/06/10 02:19:06;;;;;;;15.77;5.13;;;;;;;17.61;70.27;101425.66;1027446;28;20038;-56
2023/06/10 02:19:42;;;;;;;9.30;6.05;;;;;;;17.61;70.41;101428.34;1027944;28;20047;-56
2023/06/10 02:20:14;;;;;;;8.98;5.80;;;;;;;17.63;70.25;101429.97;1031436;28;20042;-56
2023/06/10 02:20:46;;;;;;;9.75;4.45;;;;;;;17.63;70.15;101432.66;1031446;28;20236;-56
2023/06/10 02:21:18;;;;;;;9.35;4.75;;;;;;;17.58;70.70;101428.84;1032894;28;20088;-56
2023/06/10 02:21:50;;;;;;;9.75;5.70;;;;;;;17.61;70.42;101436.44;1035780;28;20046;-56
2023/06/10 02:22:23;;;;;;;7.40;5.30;;;;;;;17.58;70.25;101428.03;1035959;28;20053;-56
2023/06/10 02:22:54;;;;;;;9.57;5.38;;;;;;;17.52;70.65;101432.50;1033987;28;20401;-56
2023/06/10 02:23:26;;;;;;;8.90;5.07;;;;;;;17.54;70.73;101427.72;1031675;28;20050;-56
2023/06/10 02:23:58;;;;;;;6.43;4.90;;;;;;;17.43;71.09;101425.94;1033992;28;20052;-56
2023/06/10 02:24:29;;;;;;;7.05;5.18;;;;;;;17.37;71.57;101432.31;1035791;28;20042;-56
2023/06/10 02:25:01;;;;;;;6.50;5.50;;;;;;;17.35;71.66;101428.22;1035793;28;20057;-56
2023/06/10 02:25:32;;;;;;;8.10;5.57;;;;;;;17.33;71.60;101431.16;1030762;28;20066;-56
2023/06/10 02:26:04;;;;;;;8.77;5.07;;;;;;;17.30;71.88;101431.66;1023489;28;20147;-56
2023/06/10 02:26:38;;;;;;;6.97;5.78;;;;;;;17.32;71.57;101424.16;1023734;28;20043;-51
2023/06/10 02:27:10;;;;;;;10.68;4.95;;;;;;;17.39;71.62;101429.38;1021102;29;20044;-46
2023/06/10 02:27:41;;;;;;;12.80;4.88;;;;;;;17.40;71.42;101423.72;1021224;28;20043;-49
2023/06/10 02:28:14;;;;;;;12.80;5.15;;;;;;;17.40;71.63;101426.41;1027598;28;20034;-48
2023/06/10 02:28:48;;;;;;;7.78;5.70;;;;;;;17.41;71.74;101433.44;1028659;28;20043;-49
2023/06/10 02:29:20;;;;;;;6.43;5.47;;;;;;;17.40;71.77;101431.81;1029090;28;20122;-47
2023/06/10 02:29:52;;;;;;;7.10;4.78;;;;;;;17.45;71.33;101426.50;1027696;28;20054;-48
2023/06/10 02:30:24;;;;;;;13.23;5.55;;;;;;;17.38;71.57;101428.56;1027655;28;20043;-53
2023/06/10 02:30:57;;;;;;;7.55;5.43;;;;;;;17.40;71.70;101434.50;1028726;28;20089;-56
2023/06/10 02:31:29;;;;;;;9.55;4.95;;;;;;;17.41;71.89;101430.75;1027607;28;20038;-56
2023/06/10 02:32:02;;;;;;;6.15;4.32;;;;;;;17.34;71.78;101424.72;1024205;28;20054;-56
2023/06/10 02:32:34;;;;;;;11.80;4.60;;;;;;;17.33;71.89;101425.78;1023475;28;20055;-56
2023/06/10 02:33:09;;;;;;;7.13;5.32;;;;;;;17.32;71.95;101428.72;1020472;28;20044;-56
2023/06/10 02:33:42;;;;;;;14.30;4.68;;;;;;;17.28;72.11;101428.41;1022241;28;20047;-56
2023/06/10 02:34:14;;;;;;;6.15;4.15;;;;;;;17.29;72.19;101430.03;1033407;28;20077;-55
2023/06/10 02:34:45;;;;;;;10.00;5.00;;;;;;;17.34;72.12;101432.81;1032918;28;20046;-55
2023/06/10 02:35:18;;;;;;;8.32;5.10;;;;;;;17.29;72.01;101430.03;1032438;28;20038;-44